createdAt,value
2022-10-28T00:01:25.788Z,101899.41
2022-10-28T00:03:58.695Z,101902.06
2022-10-28T00:06:35.429Z,101895.91
2022-10-28T00:09:05.633Z,101895.91
2022-10-28T00:11:35.576Z,101896.78
2022-10-28T00:14:05.435Z,101891.53
2022-10-28T00:16:35.486Z,101906.44
2022-10-28T00:19:04.141Z,101906.44
2022-10-28T00:21:34.364Z,101895.91
2022-10-28T00:24:01.314Z,101895.03
2022-10-28T00:26:33.837Z,101888.91
2022-10-28T00:29:13.438Z,101875.75
2022-10-28T00:31:41.024Z,101882.75
2022-10-28T00:34:13.165Z,101876.63
2022-10-28T00:36:43.917Z,101867.84
2022-10-28T00:39:20.216Z,101866.13
2022-10-28T00:41:57.006Z,101864.38
2022-10-28T00:44:54.701Z,101870.50
2022-10-28T00:47:52.516Z,101862.63
2022-10-28T00:50:58.225Z,101860.00
2022-10-28T00:53:29.792Z,101861.75
2022-10-28T00:56:00.538Z,101867.88
2022-10-28T00:58:27.971Z,101869.63
2022-10-28T01:00:55.263Z,101869.63
2022-10-28T01:03:22.579Z,101865.25
2022-10-28T01:05:51.616Z,101869.66
2022-10-28T01:08:18.755Z,101859.13
2022-10-28T01:11:29.150Z,101854.75
2022-10-28T01:14:10.932Z,101850.38
2022-10-28T01:17:17.231Z,101843.41
2022-10-28T01:20:25.672Z,101836.38
2022-10-28T01:23:33.510Z,101835.53
2022-10-28T01:26:16.854Z,101826.75
2022-10-28T01:29:26.483Z,101828.53
2022-10-28T01:31:54.996Z,101818.00
2022-10-28T01:34:36.034Z,101830.28
2022-10-28T01:37:34.818Z,101834.66
2022-10-28T01:40:28.220Z,101841.69
2022-10-28T01:43:13.105Z,101841.69
2022-10-28T01:45:53.202Z,101838.19
2022-10-28T01:48:42.934Z,101846.06
2022-10-28T01:51:37.033Z,101837.31
2022-10-28T01:54:07.857Z,101846.97
2022-10-28T01:56:41.455Z,101842.53
2022-10-28T01:59:13.717Z,101844.28
2022-10-28T02:01:40.706Z,101837.28
2022-10-28T02:04:07.913Z,101839.91
2022-10-28T02:06:36.986Z,101842.53
2022-10-28T02:09:30.347Z,101837.28
2022-10-28T02:12:18.552Z,101837.28
2022-10-28T02:14:58.422Z,101844.31
2022-10-28T02:17:55.970Z,101840.78
2022-10-28T02:21:05.860Z,101835.53
2022-10-28T02:24:08.570Z,101838.19
2022-10-28T02:26:42.854Z,101846.06
2022-10-28T02:29:45.807Z,101846.94
2022-10-28T02:32:20.810Z,101857.47
2022-10-28T02:34:54.095Z,101854.81
2022-10-28T02:37:33.748Z,101845.16
2022-10-28T02:40:07.326Z,101852.19
2022-10-28T02:42:51.398Z,101850.44
2022-10-28T02:45:34.055Z,101845.19
2022-10-28T02:48:16.464Z,101836.41
2022-10-28T02:50:51.679Z,101843.44
2022-10-28T02:53:31.364Z,101830.28
2022-10-28T02:56:01.834Z,101827.66
2022-10-28T02:58:29.147Z,101820.66
2022-10-28T03:00:56.066Z,101827.66
2022-10-28T03:03:23.000Z,101827.66
2022-10-28T03:05:49.881Z,101828.53
2022-10-28T03:08:16.803Z,101824.19
2022-10-28T03:10:43.668Z,101825.03
2022-10-28T03:13:10.547Z,101830.31
2022-10-28T03:15:37.408Z,101825.94
2022-10-28T03:18:04.365Z,101818.03
2022-10-28T03:20:31.372Z,101809.28
2022-10-28T03:22:58.252Z,101804.91
2022-10-28T03:25:25.120Z,101803.16
2022-10-28T03:27:51.999Z,101797.00
2022-10-28T03:30:19.069Z,101798.78
2022-10-28T03:32:46.076Z,101797.91
2022-10-28T03:35:13.055Z,101804.91
2022-10-28T03:37:43.750Z,101811.03
2022-10-28T03:40:12.045Z,101803.16
2022-10-28T03:42:41.877Z,101823.28
2022-10-28T03:45:09.624Z,101828.53
2022-10-28T03:47:36.777Z,101830.31
2022-10-28T03:50:03.973Z,101822.41
2022-10-28T03:52:30.872Z,101838.16
2022-10-28T03:54:57.729Z,101837.28
2022-10-28T03:57:24.831Z,101839.03
2022-10-28T03:59:51.697Z,101823.28
2022-10-28T04:02:18.680Z,101820.66
2022-10-28T04:04:45.690Z,101821.53
2022-10-28T04:07:12.559Z,101818.03
2022-10-28T04:09:39.434Z,101815.41
2022-10-28T04:12:07.190Z,101818.91
2022-10-28T04:14:34.047Z,101807.53
2022-10-28T04:17:00.944Z,101824.16
2022-10-28T04:19:27.895Z,101822.41
2022-10-28T04:21:54.771Z,101824.16
2022-10-28T04:24:21.739Z,101812.78
2022-10-28T04:26:48.624Z,101812.78
2022-10-28T04:29:15.517Z,101801.41
2022-10-28T04:31:42.428Z,101796.16
2022-10-28T04:34:09.295Z,101803.16
2022-10-28T04:36:36.214Z,101804.03
2022-10-28T04:39:03.311Z,101810.16
2022-10-28T04:41:30.203Z,101791.75
2022-10-28T04:43:57.108Z,101789.16
2022-10-28T04:46:24.012Z,101790.03
2022-10-28T04:48:50.892Z,101781.25
2022-10-28T04:51:17.762Z,101764.63
2022-10-28T04:53:44.659Z,101767.25
2022-10-28T04:56:11.534Z,101763.75
2022-10-28T04:58:38.386Z,101769.00
2022-10-28T05:01:09.208Z,101762.88
2022-10-28T05:03:36.554Z,101763.75
2022-10-28T05:06:03.808Z,101764.59
2022-10-28T05:08:30.686Z,101761.13
2022-10-28T05:10:58.193Z,101762.88
2022-10-28T05:13:25.083Z,101760.22
2022-10-28T05:15:52.044Z,101763.72
2022-10-28T05:18:19.163Z,101761.09
2022-10-28T05:20:46.028Z,101764.63
2022-10-28T05:23:13.025Z,101763.75
2022-10-28T05:25:40.306Z,101761.97
2022-10-28T05:28:07.187Z,101756.75
2022-10-28T05:30:34.053Z,101760.22
2022-10-28T05:33:04.877Z,101753.22
2022-10-28T05:35:32.034Z,101756.69
2022-10-28T05:37:58.993Z,101767.22
2022-10-28T05:40:25.891Z,101747.09
2022-10-28T05:42:53.150Z,101761.97
2022-10-28T05:45:20.302Z,101758.44
2022-10-28T05:47:48.712Z,101746.16
2022-10-28T05:50:18.980Z,101740.06
2022-10-28T05:52:51.554Z,101745.28
2022-10-28T05:55:20.128Z,101740.91
2022-10-28T05:57:48.476Z,101738.28
2022-10-28T06:00:17.324Z,101740.03
2022-10-28T06:02:44.354Z,101732.16
2022-10-28T06:05:11.942Z,101734.75
2022-10-28T06:07:40.384Z,101724.28
2022-10-28T06:10:09.416Z,101727.78
2022-10-28T06:12:34.990Z,101722.53
2022-10-28T06:15:02.826Z,101726.03
2022-10-28T06:17:29.856Z,101735.66
2022-10-28T06:19:56.753Z,101735.66
2022-10-28T06:22:23.657Z,101740.03
2022-10-28T06:24:50.524Z,101726.00
2022-10-28T06:27:17.401Z,101740.03
2022-10-28T06:29:44.383Z,101743.53
2022-10-28T06:32:11.282Z,101753.19
2022-10-28T06:34:38.156Z,101759.31
2022-10-28T06:37:05.715Z,101772.47
2022-10-28T06:39:32.901Z,101767.22
2022-10-28T06:41:59.993Z,101770.72
2022-10-28T06:44:26.862Z,101775.09
2022-10-28T06:46:56.263Z,101777.69
2022-10-28T06:49:23.134Z,101784.75
2022-10-28T06:51:50.092Z,101787.38
2022-10-28T06:54:17.836Z,101792.63
2022-10-28T06:56:47.361Z,101782.97
2022-10-28T06:59:14.215Z,101775.97
2022-10-28T07:01:41.388Z,101782.09
2022-10-28T07:04:12.727Z,101778.59
2022-10-28T07:06:40.775Z,101779.47
2022-10-28T07:09:07.830Z,101775.06
2022-10-28T07:11:34.689Z,101780.31
2022-10-28T07:14:01.641Z,101780.34
2022-10-28T07:16:28.523Z,101789.06
2022-10-28T07:18:55.368Z,101784.72
2022-10-28T07:21:25.678Z,101789.06
2022-10-28T07:23:52.548Z,101799.56
2022-10-28T07:26:19.393Z,101803.06
2022-10-28T07:28:46.286Z,101812.72
2022-10-28T07:31:13.211Z,101813.59
2022-10-28T07:33:40.062Z,101806.56
2022-10-28T07:36:08.028Z,101802.16
2022-10-28T07:38:34.944Z,101810.91
2022-10-28T07:41:06.957Z,101806.50
2022-10-28T07:43:40.265Z,101807.38
2022-10-28T07:46:08.080Z,101812.63
2022-10-28T07:48:36.577Z,101810.81
2022-10-28T07:51:06.326Z,101802.06
2022-10-28T07:53:33.921Z,101798.56
2022-10-28T07:56:04.695Z,101778.38
2022-10-28T07:58:31.559Z,101773.09
2022-10-28T08:01:06.887Z,101764.31
2022-10-28T08:03:38.748Z,101777.44
2022-10-28T08:06:10.376Z,101770.41
2022-10-28T08:08:38.178Z,101764.22
2022-10-28T08:11:16.697Z,101767.72
2022-10-28T08:13:43.561Z,101772.97
2022-10-28T08:16:10.679Z,101776.41
2022-10-28T08:18:38.889Z,101765.84
2022-10-28T08:21:09.094Z,101770.19
2022-10-28T08:23:38.305Z,101754.34
2022-10-28T08:26:05.916Z,101754.31
2022-10-28T08:28:32.831Z,101763.91
2022-10-28T08:31:08.645Z,101764.72
2022-10-28T08:33:42.613Z,101754.19
2022-10-28T08:36:13.171Z,101767.25
2022-10-28T08:38:45.193Z,101768.13
2022-10-28T08:41:34.038Z,101759.31
2022-10-28T08:44:28.285Z,101761.09
2022-10-28T08:47:16.679Z,101755.81
2022-10-28T08:49:49.227Z,101768.06
2022-10-28T08:52:24.784Z,101756.56
2022-10-28T08:55:22.241Z,101752.13
2022-10-28T08:58:21.607Z,101765.25
2022-10-28T09:00:54.263Z,101759.97
2022-10-28T09:03:34.317Z,101754.59
2022-10-28T09:06:06.973Z,101759.78
2022-10-28T09:08:42.594Z,101753.53
2022-10-28T09:11:46.946Z,101762.22
2022-10-28T09:14:49.408Z,101763.00
2022-10-28T09:17:54.795Z,101759.41
2022-10-28T09:20:53.340Z,101751.38
2022-10-28T09:23:38.039Z,101744.22
2022-10-28T09:26:35.978Z,101745.03
2022-10-28T09:29:32.820Z,101745.00
2022-10-28T09:32:20.823Z,101740.50
2022-10-28T09:34:55.782Z,101744.84
2022-10-28T09:37:29.397Z,101740.38
2022-10-28T09:40:04.689Z,101737.69
2022-10-28T09:45:19.444Z,101742.03
2022-10-28T09:48:01.690Z,101736.69
2022-10-28T09:50:32.669Z,101726.94
2022-10-28T09:53:33.710Z,101728.59
2022-10-28T09:56:04.672Z,101715.25
2022-10-28T09:58:35.823Z,101710.78
2022-10-28T10:01:04.870Z,101700.00
2022-10-28T10:03:33.005Z,101699.91
2022-10-28T10:06:11.530Z,101702.50
2022-10-28T10:08:40.689Z,101712.03
2022-10-28T10:11:31.514Z,101713.69
2022-10-28T10:14:00.280Z,101718.91
2022-10-28T10:16:42.453Z,101722.38
2022-10-28T10:19:11.187Z,101718.75
2022-10-28T10:21:47.592Z,101715.09
2022-10-28T10:24:32.216Z,101714.09
2022-10-28T10:27:18.742Z,101709.50
2022-10-28T10:29:52.077Z,101718.00
2022-10-28T10:32:23.292Z,101708.88
2022-10-28T10:35:12.821Z,101709.56
2022-10-28T10:37:45.818Z,101706.75
2022-10-28T10:40:48.667Z,101694.16
2022-10-28T10:43:18.268Z,101680.63
2022-10-28T10:45:59.442Z,101687.44
2022-10-28T10:48:27.662Z,101680.16
2022-10-28T10:50:55.890Z,101675.44
2022-10-28T10:53:26.381Z,101675.25
2022-10-28T10:55:58.257Z,101676.00
2022-10-28T10:58:30.657Z,101663.50
2022-10-28T11:01:01.288Z,101657.25
2022-10-28T11:03:31.991Z,101657.09
2022-10-28T11:08:47.967Z,101651.75
2022-10-28T11:11:21.677Z,101656.94
2022-10-28T11:14:03.304Z,101652.50
2022-10-28T11:16:30.232Z,101655.06
2022-10-28T11:18:57.119Z,101653.25
2022-10-28T11:21:48.024Z,101652.28
2022-10-28T11:24:30.473Z,101647.00
2022-10-28T11:28:04.085Z,101641.69
2022-10-28T11:31:17.722Z,101633.81
2022-10-28T11:33:51.245Z,101625.88
2022-10-28T11:37:09.288Z,101621.50
2022-10-28T11:40:05.363Z,101603.84
2022-10-28T11:43:30.638Z,101609.72
2022-10-28T11:46:37.655Z,101606.03
2022-10-28T11:49:33.592Z,101599.53
2022-10-28T11:52:12.088Z,101601.13
2022-10-28T11:55:12.721Z,101603.66
2022-10-28T11:58:05.107Z,101588.69
2022-10-28T12:00:50.406Z,101592.06
2022-10-28T12:03:40.903Z,101592.94
2022-10-28T12:06:42.247Z,101581.47
2022-10-28T12:09:30.129Z,101583.06
2022-10-28T12:12:23.409Z,101587.31
2022-10-28T12:15:15.794Z,101580.97
2022-10-28T12:18:13.105Z,101574.69
2022-10-28T12:20:53.274Z,101572.72
2022-10-28T12:23:22.397Z,101566.34
2022-10-28T12:25:55.460Z,101564.44
2022-10-28T12:28:32.748Z,101570.53
2022-10-28T12:31:00.919Z,101567.75
2022-10-28T12:33:37.306Z,101563.22
2022-10-28T12:36:04.033Z,101570.19
2022-10-28T12:38:44.393Z,101567.50
2022-10-28T12:41:21.449Z,101562.13
2022-10-28T12:44:14.900Z,101560.28
2022-10-28T12:47:03.241Z,101558.47
2022-10-28T12:49:57.018Z,101557.50
2022-10-28T12:53:01.194Z,101548.66
2022-10-28T12:55:48.649Z,101553.00
2022-10-28T12:58:27.353Z,101552.91
2022-10-28T13:01:01.028Z,101546.56
2022-10-28T13:03:27.961Z,101543.75
2022-10-28T13:06:30.478Z,101530.47
2022-10-28T13:09:15.390Z,101533.00
2022-10-28T13:12:39.431Z,101517.16
2022-10-28T13:15:55.617Z,101509.09
2022-10-28T13:18:57.410Z,101516.03
2022-10-28T13:22:09.379Z,101518.56
2022-10-28T13:25:27.689Z,101515.84
2022-10-28T13:27:59.311Z,101524.59
2022-10-28T13:30:27.417Z,101528.00
2022-10-28T13:33:06.190Z,101524.44
2022-10-28T13:35:33.466Z,101528.69
2022-10-28T13:38:02.611Z,101523.34
2022-10-28T13:40:32.164Z,101529.50
2022-10-28T13:43:00.854Z,101528.59
2022-10-28T13:45:54.557Z,101522.63
2022-10-28T13:48:30.525Z,101536.66
2022-10-28T13:51:09.281Z,101533.19
2022-10-28T13:53:45.194Z,101542.09
2022-10-28T13:56:27.388Z,101538.56
2022-10-28T13:58:59.107Z,101538.72
2022-10-28T14:02:07.553Z,101534.28
2022-10-28T14:04:43.894Z,101545.75
2022-10-28T14:07:10.664Z,101541.34
2022-10-28T14:09:41.133Z,101532.66
2022-10-28T14:12:26.762Z,101543.19
2022-10-28T14:15:14.144Z,101546.81
2022-10-28T14:17:46.538Z,101541.50
2022-10-28T14:20:31.219Z,101532.75
2022-10-28T14:22:59.081Z,101526.66
2022-10-28T14:25:40.931Z,101539.00
2022-10-28T14:28:32.328Z,101539.09
2022-10-28T14:31:08.267Z,101538.28
2022-10-28T14:33:50.124Z,101542.72
2022-10-28T14:36:19.958Z,101542.72
2022-10-28T14:39:32.980Z,101544.56
2022-10-28T14:42:30.687Z,101543.75
2022-10-28T14:45:27.301Z,101545.59
2022-10-28T14:48:26.673Z,101544.81
2022-10-28T14:50:54.629Z,101546.63
2022-10-28T14:53:35.555Z,101543.22
2022-10-28T14:56:12.542Z,101538.88
2022-10-28T14:58:44.419Z,101534.59
2022-10-28T15:01:17.383Z,101531.94
2022-10-28T15:04:04.272Z,101522.50
2022-10-28T15:06:33.159Z,101527.75
2022-10-28T15:09:29.190Z,101534.13
2022-10-28T15:11:59.828Z,101530.72
2022-10-28T15:14:33.210Z,101530.03
2022-10-28T15:17:19.654Z,101526.63
2022-10-28T15:19:50.045Z,101528.56
2022-10-28T15:22:21.330Z,101526.94
2022-10-28T15:24:59.194Z,101525.31
2022-10-28T15:27:33.221Z,101526.38
2022-10-28T15:30:00.619Z,101517.75
2022-10-28T15:32:34.459Z,101519.63
2022-10-28T15:35:27.207Z,101523.41
2022-10-28T15:37:55.801Z,101527.09
2022-10-28T15:40:32.503Z,101529.91
2022-10-28T15:43:07.193Z,101521.22
2022-10-28T15:45:41.208Z,101525.84
2022-10-28T15:48:15.244Z,101522.53
2022-10-28T15:50:42.254Z,101513.97
2022-10-28T15:53:12.711Z,101512.28
2022-10-28T15:58:44.459Z,101523.28
2022-10-28T16:01:35.626Z,101512.03
2022-10-28T16:04:02.633Z,101505.97
2022-10-28T16:06:33.787Z,101510.50
2022-10-28T16:09:04.346Z,101521.22
2022-10-28T16:11:35.669Z,101510.75
2022-10-28T16:14:18.246Z,101503.00
2022-10-28T16:16:45.208Z,101511.94
2022-10-28T16:19:29.000Z,101505.00
2022-10-28T16:21:56.147Z,101504.19
2022-10-28T16:24:23.030Z,101501.63
2022-10-28T16:26:49.921Z,101512.34
2022-10-28T16:29:16.795Z,101504.50
2022-10-28T16:31:46.496Z,101506.31
2022-10-28T16:34:14.895Z,101512.59
2022-10-28T16:36:41.769Z,101504.75
2022-10-28T16:39:13.011Z,101502.25
2022-10-28T16:41:40.930Z,101499.66
2022-10-28T16:44:18.488Z,101501.56
2022-10-28T16:46:45.405Z,101502.50
2022-10-28T16:49:12.263Z,101505.22
2022-10-28T16:51:39.856Z,101496.56
2022-10-28T16:54:07.535Z,101508.91
2022-10-28T16:56:34.466Z,101498.41
2022-10-28T16:59:01.347Z,101502.88
2022-10-28T17:01:28.328Z,101498.56
2022-10-28T17:03:55.234Z,101493.41
2022-10-28T17:06:22.140Z,101492.56
2022-10-28T17:09:02.317Z,101492.63
2022-10-28T17:14:02.107Z,101492.84
2022-10-28T17:16:29.032Z,101502.44
2022-10-28T17:18:55.945Z,101514.94
2022-10-28T17:21:22.872Z,101507.84
2022-10-28T17:23:49.734Z,101512.28
2022-10-28T17:26:16.614Z,101504.44
2022-10-28T17:28:43.526Z,101501.81
2022-10-28T17:31:10.761Z,101507.13
2022-10-28T17:33:37.658Z,101505.47
2022-10-28T17:36:07.838Z,101503.78
2022-10-28T17:38:34.742Z,101503.88
2022-10-28T17:41:02.015Z,101496.94
2022-10-28T17:43:28.902Z,101497.00
2022-10-28T17:46:06.467Z,101502.38
2022-10-28T17:48:34.247Z,101503.28
2022-10-28T17:51:01.170Z,101498.94
2022-10-28T17:53:28.076Z,101504.25
2022-10-28T17:55:59.310Z,101501.66
2022-10-28T17:58:26.843Z,101496.41
2022-10-28T18:01:02.924Z,101507.03
2022-10-28T18:03:33.984Z,101504.41
2022-10-28T18:06:07.249Z,101506.25
2022-10-28T18:08:40.474Z,101507.13
2022-10-28T18:11:09.904Z,101506.25
2022-10-28T18:13:39.619Z,101504.56
2022-10-28T18:16:09.622Z,101512.56
2022-10-28T18:18:41.089Z,101509.91
2022-10-28T18:21:11.683Z,101507.28
2022-10-28T18:23:40.798Z,101510.72
2022-10-28T18:26:12.465Z,101506.34
2022-10-28T18:28:41.590Z,101500.22
2022-10-28T18:31:15.366Z,101499.34
2022-10-28T18:33:43.530Z,101501.09
2022-10-28T18:36:22.317Z,101497.59
2022-10-28T18:38:50.300Z,101486.19
2022-10-28T18:41:21.003Z,101498.53
2022-10-28T18:43:48.148Z,101490.59
2022-10-28T18:46:15.037Z,101500.28
2022-10-28T18:48:41.908Z,101502.03
2022-10-28T18:51:12.149Z,101507.34
2022-10-28T18:53:44.951Z,101508.25
2022-10-28T18:56:17.811Z,101500.38
2022-10-28T18:58:45.222Z,101494.31
2022-10-28T19:01:15.413Z,101497.78
2022-10-28T19:03:43.305Z,101499.59
2022-10-28T19:06:16.356Z,101484.66
2022-10-28T19:08:44.267Z,101484.69
2022-10-28T19:11:13.469Z,101480.34
2022-10-28T19:13:42.017Z,101481.19
2022-10-28T19:16:09.854Z,101478.56
2022-10-28T19:18:38.268Z,101490.03
2022-10-28T19:21:10.596Z,101488.28
2022-10-28T19:23:37.950Z,101487.50
2022-10-28T19:26:06.734Z,101502.47
2022-10-28T19:28:39.368Z,101502.53
2022-10-28T19:31:10.406Z,101512.19
2022-10-28T19:33:40.835Z,101516.66
2022-10-28T19:36:19.937Z,101510.59
2022-10-28T19:38:49.060Z,101513.19
2022-10-28T19:41:19.286Z,101510.53
2022-10-28T19:43:46.514Z,101517.59
2022-10-28T19:46:17.019Z,101519.31
2022-10-28T19:48:48.101Z,101523.75
2022-10-28T19:51:19.679Z,101521.97
2022-10-28T19:53:55.931Z,101523.75
2022-10-28T19:56:23.146Z,101524.59
2022-10-28T19:58:58.990Z,101526.38
2022-10-28T20:01:30.111Z,101525.50
2022-10-28T20:03:57.511Z,101527.25
2022-10-28T20:06:27.397Z,101536.94
2022-10-28T20:08:54.261Z,101541.34
2022-10-28T20:11:33.672Z,101533.50
2022-10-28T20:14:12.555Z,101547.56
2022-10-28T20:16:42.797Z,101543.19
2022-10-28T20:19:10.828Z,101545.00
2022-10-28T20:21:38.326Z,101544.06
2022-10-28T20:24:06.960Z,101544.94
2022-10-28T20:26:36.434Z,101551.13
2022-10-28T20:29:03.394Z,101549.41
2022-10-28T20:31:31.845Z,101539.72
2022-10-28T20:34:03.452Z,101544.13
2022-10-28T20:36:34.230Z,101536.22
2022-10-28T20:39:16.448Z,101535.34
2022-10-28T20:41:45.574Z,101537.09
2022-10-28T20:44:12.514Z,101531.84
2022-10-28T20:46:39.534Z,101538.88
2022-10-28T20:49:08.626Z,101531.81
2022-10-28T20:51:36.101Z,101537.94
2022-10-28T20:54:03.084Z,101545.00
2022-10-28T20:56:33.607Z,101538.00
2022-10-28T20:59:00.879Z,101544.16
2022-10-28T21:01:32.437Z,101552.97
2022-10-28T21:04:03.666Z,101534.63
2022-10-28T21:06:31.021Z,101545.94
2022-10-28T21:08:58.660Z,101552.13
2022-10-28T21:11:27.484Z,101546.00
2022-10-28T21:13:57.843Z,101549.50
2022-10-28T21:16:26.273Z,101549.56
2022-10-28T21:18:53.398Z,101543.34
2022-10-28T21:21:22.562Z,101540.72
2022-10-28T21:23:49.590Z,101537.22
2022-10-28T21:26:17.180Z,101537.16
2022-10-28T21:28:45.002Z,101531.88
2022-10-28T21:31:14.972Z,101532.78
2022-10-28T21:33:43.042Z,101535.44
2022-10-28T21:36:15.862Z,101537.22
2022-10-28T21:38:42.802Z,101544.22
2022-10-28T21:41:20.813Z,101545.16
2022-10-28T21:43:50.290Z,101548.69
2022-10-28T21:46:19.191Z,101549.56
2022-10-28T21:48:46.395Z,101550.44
2022-10-28T21:51:15.658Z,101547.81
2022-10-28T21:53:44.650Z,101542.59
2022-10-28T21:56:17.630Z,101548.72
2022-10-28T21:58:46.084Z,101545.25
2022-10-28T22:01:22.798Z,101547.88
2022-10-28T22:03:51.489Z,101539.97
2022-10-28T22:06:18.432Z,101535.63
2022-10-28T22:08:45.306Z,101532.09
2022-10-28T22:11:18.472Z,101534.75
2022-10-28T22:13:45.766Z,101531.25
2022-10-28T22:16:15.949Z,101545.25
2022-10-28T22:18:43.149Z,101547.91
2022-10-28T22:21:20.180Z,101546.19
2022-10-28T22:23:47.386Z,101552.38
2022-10-28T22:26:20.425Z,101552.38
2022-10-28T22:28:48.026Z,101552.44
2022-10-28T22:31:18.345Z,101561.22
2022-10-28T22:36:22.982Z,101559.50
2022-10-28T22:38:50.265Z,101562.16
2022-10-28T22:41:18.277Z,101564.81
2022-10-28T22:43:52.024Z,101569.22
2022-10-28T22:46:19.736Z,101576.25
2022-10-28T22:48:47.199Z,101582.41
2022-10-28T22:51:14.787Z,101585.09
2022-10-28T22:53:42.017Z,101577.19
2022-10-28T22:56:15.656Z,101582.50
2022-10-28T22:58:42.826Z,101578.16
2022-10-28T23:01:16.486Z,101566.78
2022-10-28T23:03:45.979Z,101578.16
2022-10-28T23:06:15.868Z,101565.03
2022-10-28T23:08:44.878Z,101577.38
2022-10-28T23:11:12.902Z,101587.09
2022-10-28T23:13:40.123Z,101572.19
2022-10-28T23:16:13.177Z,101566.97
2022-10-28T23:18:41.014Z,101581.03
2022-10-28T23:21:14.586Z,101586.38
2022-10-28T23:23:42.927Z,101590.78
2022-10-28T23:26:11.683Z,101595.22
2022-10-28T23:28:38.994Z,101599.66
2022-10-28T23:31:06.799Z,101603.16
2022-10-28T23:33:35.028Z,101612.00
2022-10-28T23:36:06.674Z,101620.78
2022-10-28T23:38:33.702Z,101616.41
2022-10-28T23:41:06.292Z,101622.59
2022-10-28T23:43:33.750Z,101628.78
2022-10-28T23:46:01.542Z,101630.56
2022-10-28T23:48:29.463Z,101637.56
2022-10-28T23:50:57.168Z,101632.28
2022-10-28T23:53:24.825Z,101631.41
2022-10-28T23:55:52.243Z,101633.16
2022-10-28T23:58:21.730Z,101639.34
